sensor_id;sensor_type;location;lat;lon;timestamp;P1;durP1;ratioP1;P2;durP2;ratioP2
13520;SDS011;6832;51.186;3.236;2024-01-25T00:00:19;51.13;;;12.03;;
13520;SDS011;6832;51.186;3.236;2024-01-25T00:02:46;42.53;;;10.97;;
13520;SDS011;6832;51.186;3.236;2024-01-25T00:05:14;35.73;;;11.47;;
13520;SDS011;6832;51.186;3.236;2024-01-25T00:07:50;53.20;;;12.70;;
13520;SDS011;6832;51.186;3.236;2024-01-25T00:10:18;49.87;;;13.57;;
13520;SDS011;6832;51.186;3.236;2024-01-25T00:12:45;56.30;;;11.93;;
13520;SDS011;6832;51.186;3.236;2024-01-25T00:15:12;41.63;;;11.07;;
13520;SDS011;6832;51.186;3.236;2024-01-25T00:17:39;43.97;;;11.77;;
13520;SDS011;6832;51.186;3.236;2024-01-25T00:20:08;40.93;;;11.53;;
13520;SDS011;6832;51.186;3.236;2024-01-25T00:22:36;42.43;;;11.97;;
13520;SDS011;6832;51.186;3.236;2024-01-25T00:25:03;80.63;;;13.27;;
13520;SDS011;6832;51.186;3.236;2024-01-25T00:27:32;56.87;;;12.80;;
13520;SDS011;6832;51.186;3.236;2024-01-25T00:29:59;57.97;;;12.77;;
13520;SDS011;6832;51.186;3.236;2024-01-25T00:32:26;48.30;;;12.73;;
13520;SDS011;6832;51.186;3.236;2024-01-25T00:34:53;48.33;;;12.67;;
13520;SDS011;6832;51.186;3.236;2024-01-25T00:37:20;46.80;;;12.17;;
13520;SDS011;6832;51.186;3.236;2024-01-25T00:39:48;55.20;;;12.20;;
13520;SDS011;6832;51.186;3.236;2024-01-25T00:42:15;57.33;;;12.40;;
13520;SDS011;6832;51.186;3.236;2024-01-25T00:44:44;49.33;;;12.47;;
13520;SDS011;6832;51.186;3.236;2024-01-25T00:47:12;54.40;;;13.07;;
13520;SDS011;6832;51.186;3.236;2024-01-25T00:49:39;45.43;;;11.97;;
13520;SDS011;6832;51.186;3.236;2024-01-25T00:52:07;46.90;;;12.87;;
13520;SDS011;6832;51.186;3.236;2024-01-25T00:54:35;52.10;;;12.03;;
13520;SDS011;6832;51.186;3.236;2024-01-25T00:57:02;69.77;;;16.10;;
13520;SDS011;6832;51.186;3.236;2024-01-25T00:59:30;46.57;;;12.57;;
13520;SDS011;6832;51.186;3.236;2024-01-25T01:01:59;36.43;;;10.50;;
13520;SDS011;6832;51.186;3.236;2024-01-25T01:04:28;50.30;;;12.13;;
13520;SDS011;6832;51.186;3.236;2024-01-25T01:06:55;51.13;;;11.73;;
13520;SDS011;6832;51.186;3.236;2024-01-25T01:09:23;44.70;;;11.33;;
13520;SDS011;6832;51.186;3.236;2024-01-25T01:11:49;51.13;;;13.33;;
13520;SDS011;6832;51.186;3.236;2024-01-25T01:14:17;48.60;;;11.33;;
13520;SDS011;6832;51.186;3.236;2024-01-25T01:16:44;38.60;;;11.00;;
13520;SDS011;6832;51.186;3.236;2024-01-25T01:19:12;44.30;;;10.10;;
13520;SDS011;6832;51.186;3.236;2024-01-25T01:21:39;56.23;;;12.67;;
13520;SDS011;6832;51.186;3.236;2024-01-25T01:24:08;50.67;;;12.23;;
13520;SDS011;6832;51.186;3.236;2024-01-25T01:26:36;50.10;;;11.83;;
13520;SDS011;6832;51.186;3.236;2024-01-25T01:29:03;53.07;;;12.83;;
13520;SDS011;6832;51.186;3.236;2024-01-25T01:31:30;49.43;;;11.77;;
13520;SDS011;6832;51.186;3.236;2024-01-25T01:33:57;53.37;;;12.63;;
13520;SDS011;6832;51.186;3.236;2024-01-25T01:36:25;45.27;;;12.63;;
13520;SDS011;6832;51.186;3.236;2024-01-25T01:38:52;49.13;;;12.30;;
13520;SDS011;6832;51.186;3.236;2024-01-25T01:41:19;39.80;;;10.60;;
13520;SDS011;6832;51.186;3.236;2024-01-25T01:43:46;44.20;;;10.83;;
13520;SDS011;6832;51.186;3.236;2024-01-25T01:48:59;46.20;;;12.43;;
13520;SDS011;6832;51.186;3.236;2024-01-25T01:51:27;49.33;;;12.70;;
13520;SDS011;6832;51.186;3.236;2024-01-25T01:53:56;45.53;;;11.00;;
13520;SDS011;6832;51.186;3.236;2024-01-25T01:56:23;47.00;;;11.03;;
13520;SDS011;6832;51.186;3.236;2024-01-25T01:58:53;47.17;;;11.33;;
13520;SDS011;6832;51.186;3.236;2024-01-25T02:01:20;46.83;;;12.00;;
13520;SDS011;6832;51.186;3.236;2024-01-25T02:03:47;77.37;;;14.70;;
13520;SDS011;6832;51.186;3.236;2024-01-25T02:06:14;48.70;;;11.30;;
13520;SDS011;6832;51.186;3.236;2024-01-25T02:08:43;77.47;;;13.30;;
13520;SDS011;6832;51.186;3.236;2024-01-25T02:11:11;49.60;;;11.13;;
13520;SDS011;6832;51.186;3.236;2024-01-25T02:13:38;51.23;;;11.90;;
13520;SDS011;6832;51.186;3.236;2024-01-25T02:16:05;41.47;;;14.17;;
13520;SDS011;6832;51.186;3.236;2024-01-25T02:18:34;45.90;;;10.97;;
13520;SDS011;6832;51.186;3.236;2024-01-25T02:21:01;63.67;;;12.87;;
13520;SDS011;6832;51.186;3.236;2024-01-25T02:23:30;45.70;;;10.27;;
13520;SDS011;6832;51.186;3.236;2024-01-25T02:25:57;67.80;;;13.23;;
13520;SDS011;6832;51.186;3.236;2024-01-25T02:28:24;48.40;;;12.10;;
13520;SDS011;6832;51.186;3.236;2024-01-25T02:30:51;48.20;;;11.30;;
13520;SDS011;6832;51.186;3.236;2024-01-25T02:33:18;41.00;;;11.50;;
13520;SDS011;6832;51.186;3.236;2024-01-25T02:35:45;74.50;;;13.90;;
13520;SDS011;6832;51.186;3.236;2024-01-25T02:38:11;49.97;;;12.03;;
13520;SDS011;6832;51.186;3.236;2024-01-25T02:40:40;46.90;;;11.87;;
13520;SDS011;6832;51.186;3.236;2024-01-25T02:43:08;49.30;;;11.87;;
13520;SDS011;6832;51.186;3.236;2024-01-25T02:45:35;40.97;;;10.97;;
13520;SDS011;6832;51.186;3.236;2024-01-25T02:48:02;49.17;;;12.00;;
13520;SDS011;6832;51.186;3.236;2024-01-25T02:50:29;51.50;;;12.50;;
13520;SDS011;6832;51.186;3.236;2024-01-25T02:52:56;51.90;;;13.20;;
13520;SDS011;6832;51.186;3.236;2024-01-25T02:55:23;42.43;;;11.67;;
13520;SDS011;6832;51.186;3.236;2024-01-25T02:57:51;62.60;;;11.83;;
13520;SDS011;6832;51.186;3.236;2024-01-25T03:00:18;45.80;;;11.20;;
13520;SDS011;6832;51.186;3.236;2024-01-25T03:02:45;49.20;;;12.23;;
13520;SDS011;6832;51.186;3.236;2024-01-25T03:05:12;51.70;;;12.40;;
13520;SDS011;6832;51.186;3.236;2024-01-25T03:07:39;48.23;;;11.57;;
13520;SDS011;6832;51.186;3.236;2024-01-25T03:10:07;45.10;;;11.10;;
13520;SDS011;6832;51.186;3.236;2024-01-25T03:12:34;53.77;;;12.63;;
13520;SDS011;6832;51.186;3.236;2024-01-25T03:15:02;48.80;;;11.43;;
13520;SDS011;6832;51.186;3.236;2024-01-25T03:17:30;53.73;;;13.10;;
13520;SDS011;6832;51.186;3.236;2024-01-25T03:19:57;49.90;;;11.33;;
13520;SDS011;6832;51.186;3.236;2024-01-25T03:22:24;40.67;;;10.90;;
13520;SDS011;6832;51.186;3.236;2024-01-25T03:24:51;56.03;;;12.80;;
13520;SDS011;6832;51.186;3.236;2024-01-25T03:27:18;51.80;;;12.17;;
13520;SDS011;6832;51.186;3.236;2024-01-25T03:29:45;46.13;;;12.30;;
13520;SDS011;6832;51.186;3.236;2024-01-25T03:32:13;49.60;;;11.93;;
13520;SDS011;6832;51.186;3.236;2024-01-25T03:34:40;53.00;;;11.13;;
13520;SDS011;6832;51.186;3.236;2024-01-25T03:37:07;51.07;;;13.03;;
13520;SDS011;6832;51.186;3.236;2024-01-25T03:39:34;70.20;;;13.23;;
13520;SDS011;6832;51.186;3.236;2024-01-25T03:42:01;61.73;;;12.90;;
13520;SDS011;6832;51.186;3.236;2024-01-25T03:44:28;43.00;;;11.47;;
13520;SDS011;6832;51.186;3.236;2024-01-25T03:46:55;49.10;;;11.13;;
13520;SDS011;6832;51.186;3.236;2024-01-25T03:49:23;48.37;;;11.43;;
13520;SDS011;6832;51.186;3.236;2024-01-25T03:51:50;46.40;;;11.77;;
13520;SDS011;6832;51.186;3.236;2024-01-25T03:54:17;44.97;;;11.40;;
13520;SDS011;6832;51.186;3.236;2024-01-25T03:56:44;43.90;;;11.33;;
13520;SDS011;6832;51.186;3.236;2024-01-25T03:59:10;59.30;;;12.00;;
13520;SDS011;6832;51.186;3.236;2024-01-25T04:01:42;47.70;;;11.00;;
13520;SDS011;6832;51.186;3.236;2024-01-25T04:04:09;51.07;;;11.63;;
13520;SDS011;6832;51.186;3.236;2024-01-25T04:06:40;47.83;;;13.23;;
13520;SDS011;6832;51.186;3.236;2024-01-25T04:09:08;49.30;;;11.63;;
13520;SDS011;6832;51.186;3.236;2024-01-25T04:11:34;46.97;;;11.23;;
13520;SDS011;6832;51.186;3.236;2024-01-25T04:14:02;53.77;;;12.00;;
13520;SDS011;6832;51.186;3.236;2024-01-25T04:16:29;48.43;;;12.43;;
13520;SDS011;6832;51.186;3.236;2024-01-25T04:18:56;53.57;;;12.00;;
13520;SDS011;6832;51.186;3.236;2024-01-25T04:21:23;46.00;;;11.90;;
13520;SDS011;6832;51.186;3.236;2024-01-25T04:23:51;44.03;;;10.90;;
13520;SDS011;6832;51.186;3.236;2024-01-25T04:26:18;54.30;;;13.07;;
13520;SDS011;6832;51.186;3.236;2024-01-25T04:28:45;78.20;;;13.93;;
13520;SDS011;6832;51.186;3.236;2024-01-25T04:31:12;51.97;;;12.30;;
13520;SDS011;6832;51.186;3.236;2024-01-25T04:33:39;56.27;;;12.07;;
13520;SDS011;6832;51.186;3.236;2024-01-25T04:36:06;42.57;;;10.17;;
13520;SDS011;6832;51.186;3.236;2024-01-25T04:38:33;43.77;;;14.37;;
13520;SDS011;6832;51.186;3.236;2024-01-25T04:41:01;47.80;;;11.90;;
13520;SDS011;6832;51.186;3.236;2024-01-25T04:43:29;46.07;;;11.60;;
13520;SDS011;6832;51.186;3.236;2024-01-25T04:46:00;66.90;;;12.10;;
13520;SDS011;6832;51.186;3.236;2024-01-25T04:48:28;44.37;;;10.47;;
13520;SDS011;6832;51.186;3.236;2024-01-25T04:50:55;55.63;;;12.53;;
13520;SDS011;6832;51.186;3.236;2024-01-25T04:53:23;56.33;;;12.27;;
13520;SDS011;6832;51.186;3.236;2024-01-25T04:55:50;44.00;;;11.00;;
13520;SDS011;6832;51.186;3.236;2024-01-25T04:58:18;56.43;;;11.87;;
13520;SDS011;6832;51.186;3.236;2024-01-25T05:00:45;55.63;;;11.50;;
13520;SDS011;6832;51.186;3.236;2024-01-25T05:03:12;48.67;;;12.77;;
13520;SDS011;6832;51.186;3.236;2024-01-25T05:05:39;45.53;;;12.10;;
13520;SDS011;6832;51.186;3.236;2024-01-25T05:08:06;55.77;;;12.23;;
13520;SDS011;6832;51.186;3.236;2024-01-25T05:10:33;55.47;;;12.87;;
13520;SDS011;6832;51.186;3.236;2024-01-25T05:13:00;58.37;;;11.47;;
13520;SDS011;6832;51.186;3.236;2024-01-25T05:15:28;57.70;;;12.27;;
13520;SDS011;6832;51.186;3.236;2024-01-25T05:17:55;43.13;;;11.97;;
13520;SDS011;6832;51.186;3.236;2024-01-25T05:20:22;62.30;;;12.03;;
13520;SDS011;6832;51.186;3.236;2024-01-25T05:22:53;49.10;;;11.40;;
13520;SDS011;6832;51.186;3.236;2024-01-25T05:25:20;44.43;;;10.60;;
13520;SDS011;6832;51.186;3.236;2024-01-25T05:27:47;44.60;;;12.47;;
13520;SDS011;6832;51.186;3.236;2024-01-25T05:30:14;57.33;;;12.73;;
13520;SDS011;6832;51.186;3.236;2024-01-25T05:32:44;51.67;;;11.50;;
13520;SDS011;6832;51.186;3.236;2024-01-25T05:35:11;54.90;;;12.23;;
13520;SDS011;6832;51.186;3.236;2024-01-25T05:37:38;40.43;;;10.57;;
13520;SDS011;6832;51.186;3.236;2024-01-25T05:40:05;42.47;;;10.83;;
13520;SDS011;6832;51.186;3.236;2024-01-25T05:42:34;43.13;;;11.13;;
13520;SDS011;6832;51.186;3.236;2024-01-25T05:45:01;50.87;;;11.77;;
13520;SDS011;6832;51.186;3.236;2024-01-25T05:47:28;51.70;;;12.50;;
13520;SDS011;6832;51.186;3.236;2024-01-25T05:49:57;41.07;;;10.40;;
13520;SDS011;6832;51.186;3.236;2024-01-25T05:52:24;50.20;;;12.63;;
13520;SDS011;6832;51.186;3.236;2024-01-25T05:54:51;49.83;;;11.47;;
13520;SDS011;6832;51.186;3.236;2024-01-25T05:57:18;55.83;;;11.93;;
13520;SDS011;6832;51.186;3.236;2024-01-25T05:59:45;44.93;;;11.77;;
13520;SDS011;6832;51.186;3.236;2024-01-25T06:02:12;65.03;;;12.47;;
13520;SDS011;6832;51.186;3.236;2024-01-25T06:04:40;73.03;;;17.87;;
13520;SDS011;6832;51.186;3.236;2024-01-25T06:07:08;72.90;;;18.10;;
13520;SDS011;6832;51.186;3.236;2024-01-25T06:09:35;101.63;;;19.50;;
13520;SDS011;6832;51.186;3.236;2024-01-25T06:12:02;51.40;;;17.50;;
13520;SDS011;6832;51.186;3.236;2024-01-25T06:14:30;61.60;;;17.07;;
13520;SDS011;6832;51.186;3.236;2024-01-25T06:16:57;59.90;;;18.10;;
13520;SDS011;6832;51.186;3.236;2024-01-25T06:19:24;46.50;;;15.70;;
13520;SDS011;6832;51.186;3.236;2024-01-25T06:21:51;67.67;;;17.83;;
13520;SDS011;6832;51.186;3.236;2024-01-25T06:24:19;44.70;;;16.60;;
13520;SDS011;6832;51.186;3.236;2024-01-25T06:26:46;55.33;;;16.07;;
13520;SDS011;6832;51.186;3.236;2024-01-25T06:29:13;52.17;;;18.63;;
13520;SDS011;6832;51.186;3.236;2024-01-25T06:31:41;96.90;;;15.53;;
13520;SDS011;6832;51.186;3.236;2024-01-25T06:34:09;51.27;;;12.23;;
13520;SDS011;6832;51.186;3.236;2024-01-25T06:36:36;72.17;;;14.10;;
13520;SDS011;6832;51.186;3.236;2024-01-25T06:39:04;59.33;;;12.23;;
13520;SDS011;6832;51.186;3.236;2024-01-25T06:41:33;48.20;;;13.43;;
13520;SDS011;6832;51.186;3.236;2024-01-25T06:44:00;69.77;;;13.10;;
13520;SDS011;6832;51.186;3.236;2024-01-25T06:46:28;52.57;;;11.93;;
13520;SDS011;6832;51.186;3.236;2024-01-25T06:48:55;60.90;;;14.10;;
13520;SDS011;6832;51.186;3.236;2024-01-25T06:51:22;54.60;;;12.73;;
13520;SDS011;6832;51.186;3.236;2024-01-25T06:53:49;50.97;;;12.07;;
13520;SDS011;6832;51.186;3.236;2024-01-25T06:56:16;46.00;;;12.17;;
13520;SDS011;6832;51.186;3.236;2024-01-25T06:58:44;47.63;;;11.60;;
13520;SDS011;6832;51.186;3.236;2024-01-25T07:01:11;64.28;;;16.13;;
13520;SDS011;6832;51.186;3.236;2024-01-25T07:03:38;58.83;;;12.05;;
13520;SDS011;6832;51.186;3.236;2024-01-25T07:06:05;45.30;;;11.87;;
13520;SDS011;6832;51.186;3.236;2024-01-25T07:08:32;40.70;;;12.40;;
13520;SDS011;6832;51.186;3.236;2024-01-25T07:10:59;54.80;;;13.20;;
13520;SDS011;6832;51.186;3.236;2024-01-25T07:13:27;57.73;;;14.70;;
13520;SDS011;6832;51.186;3.236;2024-01-25T07:15:55;62.30;;;14.40;;
13520;SDS011;6832;51.186;3.236;2024-01-25T07:18:22;49.00;;;14.83;;
13520;SDS011;6832;51.186;3.236;2024-01-25T07:20:49;54.63;;;16.37;;
13520;SDS011;6832;51.186;3.236;2024-01-25T07:23:17;52.07;;;16.67;;
13520;SDS011;6832;51.186;3.236;2024-01-25T07:25:44;82.37;;;19.70;;
13520;SDS011;6832;51.186;3.236;2024-01-25T07:28:11;50.43;;;16.70;;
13520;SDS011;6832;51.186;3.236;2024-01-25T07:30:39;51.40;;;16.70;;
13520;SDS011;6832;51.186;3.236;2024-01-25T07:33:07;63.97;;;17.57;;
13520;SDS011;6832;51.186;3.236;2024-01-25T07:35:34;49.77;;;17.23;;
13520;SDS011;6832;51.186;3.236;2024-01-25T07:38:01;47.77;;;17.23;;
13520;SDS011;6832;51.186;3.236;2024-01-25T07:40:28;48.60;;;15.70;;
13520;SDS011;6832;51.186;3.236;2024-01-25T07:42:55;55.63;;;17.43;;
13520;SDS011;6832;51.186;3.236;2024-01-25T07:45:22;47.17;;;16.97;;
13520;SDS011;6832;51.186;3.236;2024-01-25T07:47:49;49.10;;;18.03;;
13520;SDS011;6832;51.186;3.236;2024-01-25T07:50:17;58.03;;;18.80;;
13520;SDS011;6832;51.186;3.236;2024-01-25T07:52:44;45.10;;;17.93;;
13520;SDS011;6832;51.186;3.236;2024-01-25T07:55:11;53.27;;;17.43;;
13520;SDS011;6832;51.186;3.236;2024-01-25T07:57:38;57.80;;;16.93;;
13520;SDS011;6832;51.186;3.236;2024-01-25T08:00:06;48.00;;;16.83;;
13520;SDS011;6832;51.186;3.236;2024-01-25T08:02:33;60.10;;;17.97;;
13520;SDS011;6832;51.186;3.236;2024-01-25T08:05:01;49.90;;;15.90;;
13520;SDS011;6832;51.186;3.236;2024-01-25T08:07:29;48.30;;;15.77;;
13520;SDS011;6832;51.186;3.236;2024-01-25T08:09:56;58.73;;;17.73;;
13520;SDS011;6832;51.186;3.236;2024-01-25T08:12:24;53.80;;;18.23;;
13520;SDS011;6832;51.186;3.236;2024-01-25T08:14:51;59.33;;;18.30;;
13520;SDS011;6832;51.186;3.236;2024-01-25T08:17:18;53.10;;;17.63;;
13520;SDS011;6832;51.186;3.236;2024-01-25T08:19:45;50.93;;;17.27;;
13520;SDS011;6832;51.186;3.236;2024-01-25T08:22:12;54.50;;;18.07;;
13520;SDS011;6832;51.186;3.236;2024-01-25T08:24:40;55.13;;;17.80;;
13520;SDS011;6832;51.186;3.236;2024-01-25T08:27:08;46.37;;;17.43;;
13520;SDS011;6832;51.186;3.236;2024-01-25T08:29:35;51.90;;;17.67;;
13520;SDS011;6832;51.186;3.236;2024-01-25T08:32:03;76.17;;;18.03;;
13520;SDS011;6832;51.186;3.236;2024-01-25T08:34:30;55.30;;;16.63;;
13520;SDS011;6832;51.186;3.236;2024-01-25T08:36:57;49.90;;;18.13;;
13520;SDS011;6832;51.186;3.236;2024-01-25T08:39:24;64.43;;;18.17;;
13520;SDS011;6832;51.186;3.236;2024-01-25T08:41:52;52.90;;;18.20;;
13520;SDS011;6832;51.186;3.236;2024-01-25T08:44:20;55.33;;;17.40;;
13520;SDS011;6832;51.186;3.236;2024-01-25T08:46:46;56.53;;;18.27;;
13520;SDS011;6832;51.186;3.236;2024-01-25T08:49:13;51.43;;;17.17;;
13520;SDS011;6832;51.186;3.236;2024-01-25T08:51:40;64.77;;;18.50;;
13520;SDS011;6832;51.186;3.236;2024-01-25T08:54:07;49.47;;;17.37;;
13520;SDS011;6832;51.186;3.236;2024-01-25T08:56:34;59.07;;;18.20;;
13520;SDS011;6832;51.186;3.236;2024-01-25T08:59:02;54.47;;;16.33;;
13520;SDS011;6832;51.186;3.236;2024-01-25T09:01:29;40.67;;;16.13;;
13520;SDS011;6832;51.186;3.236;2024-01-25T09:03:56;52.50;;;17.17;;
13520;SDS011;6832;51.186;3.236;2024-01-25T09:06:27;45.10;;;16.97;;
13520;SDS011;6832;51.186;3.236;2024-01-25T09:08:54;49.70;;;19.87;;
13520;SDS011;6832;51.186;3.236;2024-01-25T09:11:21;46.20;;;18.20;;
13520;SDS011;6832;51.186;3.236;2024-01-25T09:13:48;57.53;;;17.40;;
13520;SDS011;6832;51.186;3.236;2024-01-25T09:16:17;49.20;;;17.23;;
13520;SDS011;6832;51.186;3.236;2024-01-25T09:18:45;54.63;;;18.27;;
13520;SDS011;6832;51.186;3.236;2024-01-25T09:21:12;49.33;;;17.70;;
13520;SDS011;6832;51.186;3.236;2024-01-25T09:23:39;55.23;;;20.43;;
13520;SDS011;6832;51.186;3.236;2024-01-25T09:26:06;43.90;;;16.70;;
13520;SDS011;6832;51.186;3.236;2024-01-25T09:28:33;52.73;;;17.17;;
13520;SDS011;6832;51.186;3.236;2024-01-25T09:31:03;57.27;;;18.60;;
13520;SDS011;6832;51.186;3.236;2024-01-25T09:33:32;51.83;;;18.23;;
13520;SDS011;6832;51.186;3.236;2024-01-25T09:35:59;69.13;;;20.43;;
13520;SDS011;6832;51.186;3.236;2024-01-25T09:38:27;46.50;;;17.77;;
13520;SDS011;6832;51.186;3.236;2024-01-25T09:40:53;57.30;;;20.17;;
13520;SDS011;6832;51.186;3.236;2024-01-25T09:43:21;50.87;;;17.57;;
13520;SDS011;6832;51.186;3.236;2024-01-25T09:45:48;55.37;;;18.33;;
13520;SDS011;6832;51.186;3.236;2024-01-25T09:48:18;47.60;;;18.93;;
13520;SDS011;6832;51.186;3.236;2024-01-25T09:50:47;74.60;;;18.97;;
13520;SDS011;6832;51.186;3.236;2024-01-25T09:53:17;45.37;;;17.30;;
13520;SDS011;6832;51.186;3.236;2024-01-25T09:55:55;46.10;;;15.97;;
13520;SDS011;6832;51.186;3.236;2024-01-25T09:58:36;50.73;;;17.50;;
13520;SDS011;6832;51.186;3.236;2024-01-25T10:01:05;59.83;;;17.13;;
13520;SDS011;6832;51.186;3.236;2024-01-25T10:03:35;39.03;;;15.43;;
13520;SDS011;6832;51.186;3.236;2024-01-25T10:06:04;46.17;;;19.30;;
13520;SDS011;6832;51.186;3.236;2024-01-25T10:08:32;46.23;;;18.23;;
13520;SDS011;6832;51.186;3.236;2024-01-25T10:10:59;55.63;;;17.80;;
13520;SDS011;6832;51.186;3.236;2024-01-25T10:13:25;56.83;;;17.70;;
13520;SDS011;6832;51.186;3.236;2024-01-25T10:15:53;46.73;;;16.97;;
13520;SDS011;6832;51.186;3.236;2024-01-25T10:18:21;54.77;;;17.63;;
13520;SDS011;6832;51.186;3.236;2024-01-25T10:20:48;49.00;;;17.10;;
13520;SDS011;6832;51.186;3.236;2024-01-25T10:23:17;52.17;;;16.73;;
13520;SDS011;6832;51.186;3.236;2024-01-25T10:25:44;55.17;;;17.30;;
13520;SDS011;6832;51.186;3.236;2024-01-25T10:28:11;54.87;;;17.30;;
13520;SDS011;6832;51.186;3.236;2024-01-25T10:30:38;46.70;;;18.80;;
13520;SDS011;6832;51.186;3.236;2024-01-25T10:33:05;51.70;;;18.30;;
13520;SDS011;6832;51.186;3.236;2024-01-25T10:35:35;48.10;;;16.87;;
13520;SDS011;6832;51.186;3.236;2024-01-25T10:38:03;63.17;;;18.07;;
13520;SDS011;6832;51.186;3.236;2024-01-25T10:40:32;46.37;;;16.20;;
13520;SDS011;6832;51.186;3.236;2024-01-25T10:42:59;59.37;;;21.03;;
13520;SDS011;6832;51.186;3.236;2024-01-25T10:45:26;59.23;;;17.93;;
13520;SDS011;6832;51.186;3.236;2024-01-25T10:47:53;49.00;;;17.33;;
13520;SDS011;6832;51.186;3.236;2024-01-25T10:50:20;54.93;;;18.33;;
13520;SDS011;6832;51.186;3.236;2024-01-25T10:52:50;44.73;;;16.33;;
13520;SDS011;6832;51.186;3.236;2024-01-25T10:55:17;53.40;;;18.13;;
13520;SDS011;6832;51.186;3.236;2024-01-25T10:57:45;57.27;;;16.47;;
13520;SDS011;6832;51.186;3.236;2024-01-25T11:00:13;49.47;;;17.87;;
13520;SDS011;6832;51.186;3.236;2024-01-25T11:02:42;51.30;;;16.77;;
13520;SDS011;6832;51.186;3.236;2024-01-25T11:05:11;43.53;;;17.20;;
13520;SDS011;6832;51.186;3.236;2024-01-25T11:07:45;50.00;;;16.83;;
13520;SDS011;6832;51.186;3.236;2024-01-25T11:10:14;45.80;;;17.53;;
13520;SDS011;6832;51.186;3.236;2024-01-25T11:12:50;57.17;;;18.73;;
13520;SDS011;6832;51.186;3.236;2024-01-25T11:15:19;55.13;;;18.03;;
13520;SDS011;6832;51.186;3.236;2024-01-25T11:17:51;49.10;;;16.73;;
13520;SDS011;6832;51.186;3.236;2024-01-25T11:20:20;52.33;;;15.97;;
13520;SDS011;6832;51.186;3.236;2024-01-25T11:22:48;50.17;;;16.97;;
13520;SDS011;6832;51.186;3.236;2024-01-25T11:25:19;54.50;;;17.80;;
13520;SDS011;6832;51.186;3.236;2024-01-25T11:27:47;52.17;;;18.20;;
13520;SDS011;6832;51.186;3.236;2024-01-25T11:30:17;51.43;;;20.70;;
13520;SDS011;6832;51.186;3.236;2024-01-25T11:32:45;49.80;;;18.00;;
13520;SDS011;6832;51.186;3.236;2024-01-25T11:35:13;47.50;;;16.80;;
13520;SDS011;6832;51.186;3.236;2024-01-25T11:37:42;57.27;;;17.47;;
13520;SDS011;6832;51.186;3.236;2024-01-25T11:40:10;48.20;;;17.93;;
13520;SDS011;6832;51.186;3.236;2024-01-25T11:42:37;64.17;;;19.70;;
13520;SDS011;6832;51.186;3.236;2024-01-25T11:45:07;40.60;;;16.93;;
13520;SDS011;6832;51.186;3.236;2024-01-25T11:47:36;63.97;;;17.67;;
13520;SDS011;6832;51.186;3.236;2024-01-25T11:50:03;46.97;;;16.70;;
13520;SDS011;6832;51.186;3.236;2024-01-25T11:52:35;52.63;;;17.57;;
13520;SDS011;6832;51.186;3.236;2024-01-25T11:55:02;56.20;;;17.00;;
13520;SDS011;6832;51.186;3.236;2024-01-25T11:57:31;46.93;;;15.63;;
13520;SDS011;6832;51.186;3.236;2024-01-25T12:00:01;44.47;;;16.27;;
13520;SDS011;6832;51.186;3.236;2024-01-25T12:02:31;46.90;;;17.10;;
13520;SDS011;6832;51.186;3.236;2024-01-25T12:04:58;49.87;;;18.33;;
13520;SDS011;6832;51.186;3.236;2024-01-25T12:07:25;56.90;;;19.00;;
13520;SDS011;6832;51.186;3.236;2024-01-25T12:09:58;47.63;;;17.50;;
13520;SDS011;6832;51.186;3.236;2024-01-25T12:12:26;48.80;;;16.63;;
13520;SDS011;6832;51.186;3.236;2024-01-25T12:14:57;66.30;;;17.80;;
13520;SDS011;6832;51.186;3.236;2024-01-25T12:17:26;52.50;;;17.77;;
13520;SDS011;6832;51.186;3.236;2024-01-25T12:19:56;58.47;;;17.40;;
13520;SDS011;6832;51.186;3.236;2024-01-25T12:22:23;51.30;;;18.73;;
13520;SDS011;6832;51.186;3.236;2024-01-25T12:24:52;59.70;;;18.60;;
13520;SDS011;6832;51.186;3.236;2024-01-25T12:27:20;48.80;;;17.40;;
13520;SDS011;6832;51.186;3.236;2024-01-25T12:29:47;40.87;;;16.17;;
13520;SDS011;6832;51.186;3.236;2024-01-25T12:32:14;45.07;;;17.23;;
13520;SDS011;6832;51.186;3.236;2024-01-25T12:34:41;54.90;;;16.90;;
13520;SDS011;6832;51.186;3.236;2024-01-25T12:37:10;47.40;;;17.90;;
13520;SDS011;6832;51.186;3.236;2024-01-25T12:39:37;52.30;;;16.57;;
13520;SDS011;6832;51.186;3.236;2024-01-25T12:42:04;49.43;;;16.40;;
13520;SDS011;6832;51.186;3.236;2024-01-25T12:44:31;69.80;;;18.07;;
13520;SDS011;6832;51.186;3.236;2024-01-25T12:46:58;56.90;;;18.57;;
13520;SDS011;6832;51.186;3.236;2024-01-25T12:49:27;53.70;;;17.50;;
13520;SDS011;6832;51.186;3.236;2024-01-25T12:51:54;36.13;;;16.40;;
13520;SDS011;6832;51.186;3.236;2024-01-25T12:54:23;47.77;;;17.07;;
13520;SDS011;6832;51.186;3.236;2024-01-25T12:56:50;57.83;;;19.13;;
13520;SDS011;6832;51.186;3.236;2024-01-25T12:59:17;57.03;;;18.73;;
13520;SDS011;6832;51.186;3.236;2024-01-25T13:01:44;52.17;;;17.43;;
13520;SDS011;6832;51.186;3.236;2024-01-25T13:04:11;49.13;;;16.10;;
13520;SDS011;6832;51.186;3.236;2024-01-25T13:06:38;58.73;;;17.27;;
13520;SDS011;6832;51.186;3.236;2024-01-25T13:09:05;41.83;;;16.50;;
13520;SDS011;6832;51.186;3.236;2024-01-25T13:11:34;45.03;;;17.60;;
13520;SDS011;6832;51.186;3.236;2024-01-25T13:14:01;50.07;;;17.20;;
13520;SDS011;6832;51.186;3.236;2024-01-25T13:16:28;47.07;;;18.07;;
13520;SDS011;6832;51.186;3.236;2024-01-25T13:18:55;47.70;;;16.70;;
13520;SDS011;6832;51.186;3.236;2024-01-25T13:21:22;62.37;;;20.93;;
13520;SDS011;6832;51.186;3.236;2024-01-25T13:23:48;47.90;;;15.97;;
13520;SDS011;6832;51.186;3.236;2024-01-25T13:26:15;46.40;;;16.77;;
13520;SDS011;6832;51.186;3.236;2024-01-25T13:28:44;49.43;;;17.47;;
13520;SDS011;6832;51.186;3.236;2024-01-25T13:31:10;42.57;;;17.13;;
13520;SDS011;6832;51.186;3.236;2024-01-25T13:33:37;61.70;;;19.17;;
13520;SDS011;6832;51.186;3.236;2024-01-25T13:36:04;39.93;;;16.77;;
13520;SDS011;6832;51.186;3.236;2024-01-25T13:38:33;56.17;;;16.30;;
13520;SDS011;6832;51.186;3.236;2024-01-25T13:41:00;56.20;;;18.00;;
13520;SDS011;6832;51.186;3.236;2024-01-25T13:43:27;51.00;;;18.33;;
13520;SDS011;6832;51.186;3.236;2024-01-25T13:45:56;54.50;;;16.10;;
13520;SDS011;6832;51.186;3.236;2024-01-25T13:48:23;41.50;;;15.80;;
13520;SDS011;6832;51.186;3.236;2024-01-25T13:50:50;51.77;;;17.17;;
13520;SDS011;6832;51.186;3.236;2024-01-25T13:53:17;52.90;;;16.77;;
13520;SDS011;6832;51.186;3.236;2024-01-25T13:55:44;50.70;;;17.13;;
13520;SDS011;6832;51.186;3.236;2024-01-25T13:58:11;43.77;;;17.27;;
13520;SDS011;6832;51.186;3.236;2024-01-25T14:00:38;57.87;;;18.07;;
13520;SDS011;6832;51.186;3.236;2024-01-25T14:03:06;48.57;;;17.43;;
13520;SDS011;6832;51.186;3.236;2024-01-25T14:05:33;50.67;;;17.13;;
13520;SDS011;6832;51.186;3.236;2024-01-25T14:08:00;60.20;;;18.33;;
13520;SDS011;6832;51.186;3.236;2024-01-25T14:10:27;55.40;;;17.30;;
13520;SDS011;6832;51.186;3.236;2024-01-25T14:12:54;54.90;;;18.00;;
13520;SDS011;6832;51.186;3.236;2024-01-25T14:15:21;49.53;;;18.37;;
13520;SDS011;6832;51.186;3.236;2024-01-25T14:17:48;59.30;;;17.80;;
13520;SDS011;6832;51.186;3.236;2024-01-25T14:20:16;47.53;;;17.80;;
13520;SDS011;6832;51.186;3.236;2024-01-25T14:22:44;54.30;;;16.87;;
13520;SDS011;6832;51.186;3.236;2024-01-25T14:25:10;44.00;;;16.80;;
13520;SDS011;6832;51.186;3.236;2024-01-25T14:27:38;54.67;;;16.33;;
13520;SDS011;6832;51.186;3.236;2024-01-25T14:30:05;46.57;;;17.17;;
13520;SDS011;6832;51.186;3.236;2024-01-25T14:32:33;45.33;;;17.93;;
13520;SDS011;6832;51.186;3.236;2024-01-25T14:35:00;56.43;;;17.10;;
13520;SDS011;6832;51.186;3.236;2024-01-25T14:37:28;45.27;;;15.77;;